sensor_id;sensor_type;location;lat;lon;timestamp;P1;durP1;ratioP1;P2;durP2;ratioP2
9892;SDS011;4985;49.092;8.542;2022-07-29T00:01:15;6.18;;;2.80;;
9892;SDS011;4985;49.092;8.542;2022-07-29T00:03:41;3.92;;;2.67;;
9892;SDS011;4985;49.092;8.542;2022-07-29T00:06:08;6.50;;;2.70;;
9892;SDS011;4985;49.092;8.542;2022-07-29T00:08:35;3.22;;;2.28;;
9892;SDS011;4985;49.092;8.542;2022-07-29T00:11:02;3.37;;;2.72;;
9892;SDS011;4985;49.092;8.542;2022-07-29T00:13:28;3.03;;;2.72;;
9892;SDS011;4985;49.092;8.542;2022-07-29T00:15:56;2.92;;;2.30;;
9892;SDS011;4985;49.092;8.542;2022-07-29T00:18:23;2.70;;;2.45;;
9892;SDS011;4985;49.092;8.542;2022-07-29T00:20:49;5.78;;;2.40;;
9892;SDS011;4985;49.092;8.542;2022-07-29T00:23:16;4.47;;;2.87;;
9892;SDS011;4985;49.092;8.542;2022-07-29T00:25:43;3.60;;;2.65;;
9892;SDS011;4985;49.092;8.542;2022-07-29T00:28:09;3.30;;;2.40;;
9892;SDS011;4985;49.092;8.542;2022-07-29T00:30:36;2.53;;;2.28;;
9892;SDS011;4985;49.092;8.542;2022-07-29T00:33:04;3.28;;;2.65;;
9892;SDS011;4985;49.092;8.542;2022-07-29T00:35:30;5.20;;;2.65;;
9892;SDS011;4985;49.092;8.542;2022-07-29T00:38:12;3.12;;;2.62;;
9892;SDS011;4985;49.092;8.542;2022-07-29T00:40:39;3.75;;;2.62;;
9892;SDS011;4985;49.092;8.542;2022-07-29T00:43:06;3.33;;;2.37;;
9892;SDS011;4985;49.092;8.542;2022-07-29T00:45:33;6.20;;;2.80;;
9892;SDS011;4985;49.092;8.542;2022-07-29T00:48:00;3.67;;;2.60;;
9892;SDS011;4985;49.092;8.542;2022-07-29T00:50:29;4.75;;;2.62;;
9892;SDS011;4985;49.092;8.542;2022-07-29T00:52:57;4.47;;;2.25;;
9892;SDS011;4985;49.092;8.542;2022-07-29T00:55:24;3.60;;;2.47;;
9892;SDS011;4985;49.092;8.542;2022-07-29T00:57:51;3.15;;;2.47;;
9892;SDS011;4985;49.092;8.542;2022-07-29T01:00:19;4.70;;;2.72;;
9892;SDS011;4985;49.092;8.542;2022-07-29T01:02:49;3.42;;;2.80;;
9892;SDS011;4985;49.092;8.542;2022-07-29T01:05:17;6.47;;;2.85;;
9892;SDS011;4985;49.092;8.542;2022-07-29T01:07:46;2.85;;;2.50;;
9892;SDS011;4985;49.092;8.542;2022-07-29T01:10:16;2.78;;;2.45;;
9892;SDS011;4985;49.092;8.542;2022-07-29T01:12:46;4.30;;;2.75;;
9892;SDS011;4985;49.092;8.542;2022-07-29T01:15:15;4.05;;;2.67;;
9892;SDS011;4985;49.092;8.542;2022-07-29T01:17:43;3.03;;;2.30;;
9892;SDS011;4985;49.092;8.542;2022-07-29T01:20:14;5.62;;;2.80;;
9892;SDS011;4985;49.092;8.542;2022-07-29T01:25:44;3.67;;;2.50;;
9892;SDS011;4985;49.092;8.542;2022-07-29T01:31:24;3.65;;;2.62;;
9892;SDS011;4985;49.092;8.542;2022-07-29T01:33:57;4.05;;;2.50;;
9892;SDS011;4985;49.092;8.542;2022-07-29T01:36:30;2.40;;;2.20;;
9892;SDS011;4985;49.092;8.542;2022-07-29T01:39:02;2.80;;;2.53;;
9892;SDS011;4985;49.092;8.542;2022-07-29T01:41:35;2.90;;;2.60;;
9892;SDS011;4985;49.092;8.542;2022-07-29T01:44:11;4.15;;;2.40;;
9892;SDS011;4985;49.092;8.542;2022-07-29T01:46:44;3.05;;;2.37;;
9892;SDS011;4985;49.092;8.542;2022-07-29T01:49:17;2.37;;;2.17;;
9892;SDS011;4985;49.092;8.542;2022-07-29T01:51:48;2.83;;;2.37;;
9892;SDS011;4985;49.092;8.542;2022-07-29T01:54:18;2.60;;;2.40;;
9892;SDS011;4985;49.092;8.542;2022-07-29T01:56:51;3.05;;;2.25;;
9892;SDS011;4985;49.092;8.542;2022-07-29T01:59:20;4.32;;;2.20;;
9892;SDS011;4985;49.092;8.542;2022-07-29T02:01:50;4.10;;;2.67;;
9892;SDS011;4985;49.092;8.542;2022-07-29T02:04:20;2.90;;;2.55;;
9892;SDS011;4985;49.092;8.542;2022-07-29T02:06:49;2.75;;;2.45;;
9892;SDS011;4985;49.092;8.542;2022-07-29T02:09:17;2.85;;;2.33;;
9892;SDS011;4985;49.092;8.542;2022-07-29T02:11:48;3.47;;;2.75;;
9892;SDS011;4985;49.092;8.542;2022-07-29T02:14:18;2.47;;;2.22;;
9892;SDS011;4985;49.092;8.542;2022-07-29T02:16:47;3.70;;;2.67;;
9892;SDS011;4985;49.092;8.542;2022-07-29T02:19:19;3.47;;;2.33;;
9892;SDS011;4985;49.092;8.542;2022-07-29T02:21:49;3.20;;;2.37;;
9892;SDS011;4985;49.092;8.542;2022-07-29T02:24:19;4.57;;;2.87;;
9892;SDS011;4985;49.092;8.542;2022-07-29T02:26:47;3.12;;;2.65;;
9892;SDS011;4985;49.092;8.542;2022-07-29T02:29:16;3.45;;;2.78;;
9892;SDS011;4985;49.092;8.542;2022-07-29T02:31:47;3.85;;;2.42;;
9892;SDS011;4985;49.092;8.542;2022-07-29T02:34:15;2.97;;;2.60;;
9892;SDS011;4985;49.092;8.542;2022-07-29T02:36:45;4.57;;;2.62;;
9892;SDS011;4985;49.092;8.542;2022-07-29T02:39:12;4.10;;;2.58;;
9892;SDS011;4985;49.092;8.542;2022-07-29T02:41:42;2.90;;;2.53;;
9892;SDS011;4985;49.092;8.542;2022-07-29T02:44:12;3.97;;;2.30;;
9892;SDS011;4985;49.092;8.542;2022-07-29T02:46:41;2.67;;;2.30;;
9892;SDS011;4985;49.092;8.542;2022-07-29T02:49:13;3.10;;;2.35;;
9892;SDS011;4985;49.092;8.542;2022-07-29T02:51:43;2.60;;;2.35;;
9892;SDS011;4985;49.092;8.542;2022-07-29T02:54:18;3.42;;;2.72;;
9892;SDS011;4985;49.092;8.542;2022-07-29T02:56:48;3.90;;;2.50;;
9892;SDS011;4985;49.092;8.542;2022-07-29T02:59:22;6.18;;;2.72;;
9892;SDS011;4985;49.092;8.542;2022-07-29T03:01:52;4.25;;;2.37;;
9892;SDS011;4985;49.092;8.542;2022-07-29T03:04:21;2.90;;;2.60;;
9892;SDS011;4985;49.092;8.542;2022-07-29T03:06:52;4.50;;;2.60;;
9892;SDS011;4985;49.092;8.542;2022-07-29T03:09:19;4.35;;;2.70;;
9892;SDS011;4985;49.092;8.542;2022-07-29T03:11:47;2.95;;;2.47;;
9892;SDS011;4985;49.092;8.542;2022-07-29T03:14:16;2.58;;;2.33;;
9892;SDS011;4985;49.092;8.542;2022-07-29T03:16:43;3.62;;;3.03;;
9892;SDS011;4985;49.092;8.542;2022-07-29T03:19:11;3.12;;;2.80;;
9892;SDS011;4985;49.092;8.542;2022-07-29T03:21:38;2.95;;;2.50;;
9892;SDS011;4985;49.092;8.542;2022-07-29T03:24:07;3.45;;;2.80;;
9892;SDS011;4985;49.092;8.542;2022-07-29T03:26:33;2.78;;;2.33;;
9892;SDS011;4985;49.092;8.542;2022-07-29T03:29:00;4.25;;;2.78;;
9892;SDS011;4985;49.092;8.542;2022-07-29T03:31:26;3.50;;;2.78;;
9892;SDS011;4985;49.092;8.542;2022-07-29T03:33:53;4.05;;;3.10;;
9892;SDS011;4985;49.092;8.542;2022-07-29T03:36:20;4.10;;;2.90;;
9892;SDS011;4985;49.092;8.542;2022-07-29T03:38:46;4.50;;;3.15;;
9892;SDS011;4985;49.092;8.542;2022-07-29T03:41:15;5.78;;;3.55;;
9892;SDS011;4985;49.092;8.542;2022-07-29T03:43:44;7.28;;;4.22;;
9892;SDS011;4985;49.092;8.542;2022-07-29T03:46:14;8.77;;;4.80;;
9892;SDS011;4985;49.092;8.542;2022-07-29T03:48:45;10.48;;;4.90;;
9892;SDS011;4985;49.092;8.542;2022-07-29T03:51:14;7.00;;;4.57;;
9892;SDS011;4985;49.092;8.542;2022-07-29T03:53:41;7.53;;;4.30;;
9892;SDS011;4985;49.092;8.542;2022-07-29T03:56:08;5.65;;;4.07;;
9892;SDS011;4985;49.092;8.542;2022-07-29T03:58:37;6.45;;;3.30;;
9892;SDS011;4985;49.092;8.542;2022-07-29T04:01:05;6.00;;;3.53;;
9892;SDS011;4985;49.092;8.542;2022-07-29T04:03:32;4.37;;;3.05;;
9892;SDS011;4985;49.092;8.542;2022-07-29T04:06:00;4.40;;;3.03;;
9892;SDS011;4985;49.092;8.542;2022-07-29T04:08:30;4.53;;;2.83;;
9892;SDS011;4985;49.092;8.542;2022-07-29T04:10:56;4.18;;;2.72;;
9892;SDS011;4985;49.092;8.542;2022-07-29T04:13:23;3.65;;;2.65;;
9892;SDS011;4985;49.092;8.542;2022-07-29T04:15:51;4.93;;;3.50;;
9892;SDS011;4985;49.092;8.542;2022-07-29T04:18:17;2.62;;;2.22;;
9892;SDS011;4985;49.092;8.542;2022-07-29T04:20:44;3.42;;;2.65;;
9892;SDS011;4985;49.092;8.542;2022-07-29T04:23:11;3.37;;;2.92;;
9892;SDS011;4985;49.092;8.542;2022-07-29T04:25:37;3.00;;;2.45;;
9892;SDS011;4985;49.092;8.542;2022-07-29T04:28:04;3.65;;;2.80;;
9892;SDS011;4985;49.092;8.542;2022-07-29T04:30:32;3.37;;;2.78;;
9892;SDS011;4985;49.092;8.542;2022-07-29T04:33:01;3.37;;;2.83;;
9892;SDS011;4985;49.092;8.542;2022-07-29T04:35:28;4.12;;;2.80;;
9892;SDS011;4985;49.092;8.542;2022-07-29T04:37:55;3.47;;;2.42;;
9892;SDS011;4985;49.092;8.542;2022-07-29T04:40:22;3.25;;;2.62;;
9892;SDS011;4985;49.092;8.542;2022-07-29T04:42:49;4.22;;;3.00;;
9892;SDS011;4985;49.092;8.542;2022-07-29T04:45:15;3.53;;;2.60;;
9892;SDS011;4985;49.092;8.542;2022-07-29T04:47:42;3.60;;;2.92;;
9892;SDS011;4985;49.092;8.542;2022-07-29T04:50:10;3.87;;;3.45;;
9892;SDS011;4985;49.092;8.542;2022-07-29T04:52:36;4.62;;;3.58;;
9892;SDS011;4985;49.092;8.542;2022-07-29T04:55:04;5.60;;;3.85;;
9892;SDS011;4985;49.092;8.542;2022-07-29T04:57:31;9.57;;;5.87;;
9892;SDS011;4985;49.092;8.542;2022-07-29T04:59:58;9.50;;;5.53;;
9892;SDS011;4985;49.092;8.542;2022-07-29T05:02:25;8.30;;;5.20;;
9892;SDS011;4985;49.092;8.542;2022-07-29T05:04:51;7.72;;;4.97;;
9892;SDS011;4985;49.092;8.542;2022-07-29T05:07:19;10.88;;;5.60;;
9892;SDS011;4985;49.092;8.542;2022-07-29T05:09:46;8.30;;;5.45;;
9892;SDS011;4985;49.092;8.542;2022-07-29T05:12:12;8.35;;;5.25;;
9892;SDS011;4985;49.092;8.542;2022-07-29T05:14:39;9.25;;;5.35;;
9892;SDS011;4985;49.092;8.542;2022-07-29T05:17:05;7.10;;;4.75;;
9892;SDS011;4985;49.092;8.542;2022-07-29T05:19:32;6.85;;;4.12;;
9892;SDS011;4985;49.092;8.542;2022-07-29T05:21:59;6.82;;;4.37;;
9892;SDS011;4985;49.092;8.542;2022-07-29T05:24:27;4.32;;;3.55;;
9892;SDS011;4985;49.092;8.542;2022-07-29T05:26:53;4.93;;;3.40;;
9892;SDS011;4985;49.092;8.542;2022-07-29T05:29:20;4.10;;;2.87;;
9892;SDS011;4985;49.092;8.542;2022-07-29T05:31:47;4.10;;;3.60;;
9892;SDS011;4985;49.092;8.542;2022-07-29T05:34:13;6.60;;;4.32;;
9892;SDS011;4985;49.092;8.542;2022-07-29T05:36:40;9.75;;;5.47;;
9892;SDS011;4985;49.092;8.542;2022-07-29T05:39:07;10.00;;;5.80;;
9892;SDS011;4985;49.092;8.542;2022-07-29T05:41:34;8.77;;;5.05;;
9892;SDS011;4985;49.092;8.542;2022-07-29T05:44:01;7.43;;;4.45;;
9892;SDS011;4985;49.092;8.542;2022-07-29T05:46:28;5.10;;;3.45;;
9892;SDS011;4985;49.092;8.542;2022-07-29T05:48:55;5.40;;;3.65;;
9892;SDS011;4985;49.092;8.542;2022-07-29T05:51:21;4.93;;;3.55;;
9892;SDS011;4985;49.092;8.542;2022-07-29T05:53:48;4.90;;;3.50;;
9892;SDS011;4985;49.092;8.542;2022-07-29T05:56:14;5.68;;;3.45;;
9892;SDS011;4985;49.092;8.542;2022-07-29T05:58:42;6.43;;;3.40;;
9892;SDS011;4985;49.092;8.542;2022-07-29T06:01:09;5.43;;;3.05;;
9892;SDS011;4985;49.092;8.542;2022-07-29T06:03:36;3.80;;;2.92;;
9892;SDS011;4985;49.092;8.542;2022-07-29T06:06:03;5.75;;;3.37;;
9892;SDS011;4985;49.092;8.542;2022-07-29T06:08:31;5.18;;;3.70;;
9892;SDS011;4985;49.092;8.542;2022-07-29T06:10:58;3.95;;;3.12;;
9892;SDS011;4985;49.092;8.542;2022-07-29T06:13:25;6.28;;;2.72;;
9892;SDS011;4985;49.092;8.542;2022-07-29T06:15:53;3.78;;;2.75;;
9892;SDS011;4985;49.092;8.542;2022-07-29T06:18:19;4.43;;;3.20;;
9892;SDS011;4985;49.092;8.542;2022-07-29T06:20:48;4.12;;;3.60;;
9892;SDS011;4985;49.092;8.542;2022-07-29T06:23:15;3.85;;;2.97;;
9892;SDS011;4985;49.092;8.542;2022-07-29T06:25:42;3.35;;;3.05;;
9892;SDS011;4985;49.092;8.542;2022-07-29T06:28:08;4.70;;;3.42;;
9892;SDS011;4985;49.092;8.542;2022-07-29T06:30:35;4.50;;;3.47;;
9892;SDS011;4985;49.092;8.542;2022-07-29T06:33:03;5.47;;;3.55;;
9892;SDS011;4985;49.092;8.542;2022-07-29T06:35:30;4.03;;;3.40;;
9892;SDS011;4985;49.092;8.542;2022-07-29T06:38:00;4.03;;;3.35;;
9892;SDS011;4985;49.092;8.542;2022-07-29T06:40:26;5.20;;;3.30;;
9892;SDS011;4985;49.092;8.542;2022-07-29T06:43:10;4.40;;;3.17;;
9892;SDS011;4985;49.092;8.542;2022-07-29T06:45:37;4.97;;;3.22;;
9892;SDS011;4985;49.092;8.542;2022-07-29T06:48:07;5.57;;;3.42;;
9892;SDS011;4985;49.092;8.542;2022-07-29T06:50:33;3.83;;;3.33;;
9892;SDS011;4985;49.092;8.542;2022-07-29T06:53:00;4.72;;;3.33;;
9892;SDS011;4985;49.092;8.542;2022-07-29T06:55:27;6.45;;;3.67;;
9892;SDS011;4985;49.092;8.542;2022-07-29T06:57:53;5.40;;;3.35;;
9892;SDS011;4985;49.092;8.542;2022-07-29T07:00:20;4.37;;;3.00;;
9892;SDS011;4985;49.092;8.542;2022-07-29T07:02:47;4.18;;;3.55;;
9892;SDS011;4985;49.092;8.542;2022-07-29T07:05:15;6.10;;;3.78;;
9892;SDS011;4985;49.092;8.542;2022-07-29T07:07:41;4.97;;;2.92;;
9892;SDS011;4985;49.092;8.542;2022-07-29T07:10:08;5.05;;;3.90;;
9892;SDS011;4985;49.092;8.542;2022-07-29T07:12:35;5.07;;;3.22;;
9892;SDS011;4985;49.092;8.542;2022-07-29T07:15:02;4.60;;;3.35;;
9892;SDS011;4985;49.092;8.542;2022-07-29T07:17:29;4.32;;;3.30;;
9892;SDS011;4985;49.092;8.542;2022-07-29T07:19:55;3.70;;;3.35;;
9892;SDS011;4985;49.092;8.542;2022-07-29T07:22:23;4.15;;;3.10;;
9892;SDS011;4985;49.092;8.542;2022-07-29T07:24:50;4.68;;;3.30;;
9892;SDS011;4985;49.092;8.542;2022-07-29T07:27:16;5.95;;;3.55;;
9892;SDS011;4985;49.092;8.542;2022-07-29T07:29:43;4.10;;;3.00;;
9892;SDS011;4985;49.092;8.542;2022-07-29T07:32:10;4.05;;;2.90;;
9892;SDS011;4985;49.092;8.542;2022-07-29T07:34:38;7.55;;;3.78;;
9892;SDS011;4985;49.092;8.542;2022-07-29T07:37:04;4.15;;;3.20;;
9892;SDS011;4985;49.092;8.542;2022-07-29T07:39:33;4.43;;;2.80;;
9892;SDS011;4985;49.092;8.542;2022-07-29T07:41:59;4.05;;;2.62;;
9892;SDS011;4985;49.092;8.542;2022-07-29T07:44:26;4.78;;;2.90;;
9892;SDS011;4985;49.092;8.542;2022-07-29T07:46:53;5.57;;;3.10;;
9892;SDS011;4985;49.092;8.542;2022-07-29T07:49:19;5.28;;;3.10;;
9892;SDS011;4985;49.092;8.542;2022-07-29T07:51:46;3.53;;;2.70;;
9892;SDS011;4985;49.092;8.542;2022-07-29T07:54:13;3.58;;;3.15;;
9892;SDS011;4985;49.092;8.542;2022-07-29T07:56:41;4.82;;;2.62;;
9892;SDS011;4985;49.092;8.542;2022-07-29T07:59:07;3.28;;;2.95;;
9892;SDS011;4985;49.092;8.542;2022-07-29T08:01:34;3.05;;;2.70;;
9892;SDS011;4985;49.092;8.542;2022-07-29T08:04:00;4.43;;;2.95;;
9892;SDS011;4985;49.092;8.542;2022-07-29T08:06:27;4.82;;;2.95;;
9892;SDS011;4985;49.092;8.542;2022-07-29T08:08:54;3.42;;;2.55;;
9892;SDS011;4985;49.092;8.542;2022-07-29T08:11:20;6.72;;;2.95;;
9892;SDS011;4985;49.092;8.542;2022-07-29T08:13:48;3.30;;;2.70;;
9892;SDS011;4985;49.092;8.542;2022-07-29T08:16:15;3.65;;;2.95;;
9892;SDS011;4985;49.092;8.542;2022-07-29T08:18:42;6.70;;;3.33;;
9892;SDS011;4985;49.092;8.542;2022-07-29T08:21:10;3.47;;;2.60;;
9892;SDS011;4985;49.092;8.542;2022-07-29T08:23:37;3.72;;;3.05;;
9892;SDS011;4985;49.092;8.542;2022-07-29T08:26:04;3.75;;;2.90;;
9892;SDS011;4985;49.092;8.542;2022-07-29T08:28:35;5.12;;;3.12;;
9892;SDS011;4985;49.092;8.542;2022-07-29T08:31:03;6.00;;;2.90;;
9892;SDS011;4985;49.092;8.542;2022-07-29T08:33:30;6.18;;;3.60;;
9892;SDS011;4985;49.092;8.542;2022-07-29T08:35:57;4.40;;;2.80;;
9892;SDS011;4985;49.092;8.542;2022-07-29T08:38:24;5.00;;;3.00;;
9892;SDS011;4985;49.092;8.542;2022-07-29T08:40:51;4.12;;;3.10;;
9892;SDS011;4985;49.092;8.542;2022-07-29T08:43:18;7.00;;;3.10;;
9892;SDS011;4985;49.092;8.542;2022-07-29T08:45:46;3.85;;;2.97;;
9892;SDS011;4985;49.092;8.542;2022-07-29T08:48:17;3.72;;;3.12;;
9892;SDS011;4985;49.092;8.542;2022-07-29T08:50:46;3.80;;;2.70;;
9892;SDS011;4985;49.092;8.542;2022-07-29T08:53:14;4.97;;;3.20;;
9892;SDS011;4985;49.092;8.542;2022-07-29T08:55:43;5.15;;;2.80;;
9892;SDS011;4985;49.092;8.542;2022-07-29T08:58:11;4.32;;;3.10;;
9892;SDS011;4985;49.092;8.542;2022-07-29T09:00:40;4.32;;;3.00;;
9892;SDS011;4985;49.092;8.542;2022-07-29T09:03:10;4.80;;;2.72;;
9892;SDS011;4985;49.092;8.542;2022-07-29T09:05:42;7.22;;;3.28;;
9892;SDS011;4985;49.092;8.542;2022-07-29T09:08:10;3.80;;;2.67;;
9892;SDS011;4985;49.092;8.542;2022-07-29T09:10:38;4.25;;;3.10;;
9892;SDS011;4985;49.092;8.542;2022-07-29T09:13:05;5.93;;;2.80;;
9892;SDS011;4985;49.092;8.542;2022-07-29T09:15:31;5.57;;;3.12;;
9892;SDS011;4985;49.092;8.542;2022-07-29T09:17:58;3.62;;;2.67;;
9892;SDS011;4985;49.092;8.542;2022-07-29T09:20:25;5.28;;;3.12;;
9892;SDS011;4985;49.092;8.542;2022-07-29T09:23:14;3.30;;;2.60;;
9892;SDS011;4985;49.092;8.542;2022-07-29T09:25:41;4.60;;;2.90;;
9892;SDS011;4985;49.092;8.542;2022-07-29T09:28:08;5.25;;;2.40;;
9892;SDS011;4985;49.092;8.542;2022-07-29T09:30:36;5.85;;;2.87;;
9892;SDS011;4985;49.092;8.542;2022-07-29T09:33:16;3.20;;;2.50;;
9892;SDS011;4985;49.092;8.542;2022-07-29T09:35:42;5.78;;;2.65;;
9892;SDS011;4985;49.092;8.542;2022-07-29T09:38:09;5.05;;;2.42;;
9892;SDS011;4985;49.092;8.542;2022-07-29T09:40:39;3.10;;;2.28;;
9892;SDS011;4985;49.092;8.542;2022-07-29T09:43:09;3.05;;;2.42;;
9892;SDS011;4985;49.092;8.542;2022-07-29T09:45:37;3.90;;;2.60;;
9892;SDS011;4985;49.092;8.542;2022-07-29T09:48:12;5.18;;;2.55;;
9892;SDS011;4985;49.092;8.542;2022-07-29T09:50:40;6.97;;;2.58;;
9892;SDS011;4985;49.092;8.542;2022-07-29T09:53:08;3.83;;;2.53;;
9892;SDS011;4985;49.092;8.542;2022-07-29T09:55:46;4.25;;;2.35;;
9892;SDS011;4985;49.092;8.542;2022-07-29T09:58:15;4.45;;;2.75;;
9892;SDS011;4985;49.092;8.542;2022-07-29T10:00:43;3.72;;;2.50;;
9892;SDS011;4985;49.092;8.542;2022-07-29T10:03:11;4.47;;;2.47;;
9892;SDS011;4985;49.092;8.542;2022-07-29T10:05:38;4.18;;;2.40;;
9892;SDS011;4985;49.092;8.542;2022-07-29T10:08:07;3.60;;;2.80;;
9892;SDS011;4985;49.092;8.542;2022-07-29T10:10:34;4.65;;;2.60;;
9892;SDS011;4985;49.092;8.542;2022-07-29T10:13:04;4.85;;;2.65;;
9892;SDS011;4985;49.092;8.542;2022-07-29T10:15:33;4.12;;;2.20;;
9892;SDS011;4985;49.092;8.542;2022-07-29T10:18:02;6.72;;;2.50;;
9892;SDS011;4985;49.092;8.542;2022-07-29T10:20:29;5.53;;;2.40;;
9892;SDS011;4985;49.092;8.542;2022-07-29T10:22:55;4.45;;;2.78;;
9892;SDS011;4985;49.092;8.542;2022-07-29T10:25:23;3.37;;;2.80;;
9892;SDS011;4985;49.092;8.542;2022-07-29T10:27:50;3.12;;;2.17;;
9892;SDS011;4985;49.092;8.542;2022-07-29T10:30:19;5.45;;;2.53;;
9892;SDS011;4985;49.092;8.542;2022-07-29T10:32:51;2.97;;;2.42;;
9892;SDS011;4985;49.092;8.542;2022-07-29T10:35:32;2.87;;;2.12;;
9892;SDS011;4985;49.092;8.542;2022-07-29T10:38:24;4.18;;;2.37;;
9892;SDS011;4985;49.092;8.542;2022-07-29T10:41:02;3.10;;;2.20;;
9892;SDS011;4985;49.092;8.542;2022-07-29T10:43:54;3.37;;;2.72;;
9892;SDS011;4985;49.092;8.542;2022-07-29T10:46:27;7.05;;;2.67;;
9892;SDS011;4985;49.092;8.542;2022-07-29T10:51:53;3.05;;;2.15;;
9892;SDS011;4985;49.092;8.542;2022-07-29T10:54:38;3.97;;;2.45;;
9892;SDS011;4985;49.092;8.542;2022-07-29T10:57:11;3.20;;;2.17;;
9892;SDS011;4985;49.092;8.542;2022-07-29T10:59:42;5.55;;;2.20;;
9892;SDS011;4985;49.092;8.542;2022-07-29T11:05:09;7.60;;;2.40;;
9892;SDS011;4985;49.092;8.542;2022-07-29T11:07:39;3.22;;;2.42;;
9892;SDS011;4985;49.092;8.542;2022-07-29T11:10:26;4.35;;;2.22;;
9892;SDS011;4985;49.092;8.542;2022-07-29T11:12:52;4.05;;;2.22;;
9892;SDS011;4985;49.092;8.542;2022-07-29T11:15:20;3.22;;;2.30;;
9892;SDS011;4985;49.092;8.542;2022-07-29T11:18:04;4.93;;;2.22;;
9892;SDS011;4985;49.092;8.542;2022-07-29T11:20:32;3.45;;;2.42;;
9892;SDS011;4985;49.092;8.542;2022-07-29T11:23:00;6.82;;;2.62;;
9892;SDS011;4985;49.092;8.542;2022-07-29T11:25:27;7.47;;;2.40;;
9892;SDS011;4985;49.092;8.542;2022-07-29T11:27:54;4.18;;;2.45;;
9892;SDS011;4985;49.092;8.542;2022-07-29T11:30:49;4.37;;;2.67;;
9892;SDS011;4985;49.092;8.542;2022-07-29T11:33:30;3.30;;;2.20;;
9892;SDS011;4985;49.092;8.542;2022-07-29T11:36:08;4.28;;;2.22;;
9892;SDS011;4985;49.092;8.542;2022-07-29T11:38:36;4.75;;;2.80;;
9892;SDS011;4985;49.092;8.542;2022-07-29T11:41:22;3.62;;;2.42;;
9892;SDS011;4985;49.092;8.542;2022-07-29T11:43:50;4.90;;;2.40;;
9892;SDS011;4985;49.092;8.542;2022-07-29T11:46:18;5.62;;;2.05;;
9892;SDS011;4985;49.092;8.542;2022-07-29T11:49:13;4.80;;;2.30;;
9892;SDS011;4985;49.092;8.542;2022-07-29T11:51:49;4.03;;;2.60;;
9892;SDS011;4985;49.092;8.542;2022-07-29T11:54:16;3.87;;;2.80;;
9892;SDS011;4985;49.092;8.542;2022-07-29T11:56:50;4.07;;;2.42;;
9892;SDS011;4985;49.092;8.542;2022-07-29T11:59:17;6.07;;;2.50;;
9892;SDS011;4985;49.092;8.542;2022-07-29T12:01:52;5.70;;;2.37;;
9892;SDS011;4985;49.092;8.542;2022-07-29T12:04:20;3.55;;;2.15;;
9892;SDS011;4985;49.092;8.542;2022-07-29T12:06:48;5.07;;;2.40;;
9892;SDS011;4985;49.092;8.542;2022-07-29T12:09:16;2.83;;;2.37;;
9892;SDS011;4985;49.092;8.542;2022-07-29T12:11:43;2.92;;;2.30;;
9892;SDS011;4985;49.092;8.542;2022-07-29T12:14:24;4.43;;;2.62;;
9892;SDS011;4985;49.092;8.542;2022-07-29T12:16:51;3.20;;;2.15;;
9892;SDS011;4985;49.092;8.542;2022-07-29T12:19:18;3.92;;;2.33;;
9892;SDS011;4985;49.092;8.542;2022-07-29T12:21:46;4.25;;;2.45;;
9892;SDS011;4985;49.092;8.542;2022-07-29T12:24:13;3.40;;;2.62;;
9892;SDS011;4985;49.092;8.542;2022-07-29T12:26:48;7.53;;;2.62;;
9892;SDS011;4985;49.092;8.542;2022-07-29T12:29:16;4.15;;;2.45;;
9892;SDS011;4985;49.092;8.542;2022-07-29T12:31:43;4.55;;;2.95;;
9892;SDS011;4985;49.092;8.542;2022-07-29T12:34:11;5.00;;;2.10;;
9892;SDS011;4985;49.092;8.542;2022-07-29T12:36:39;4.20;;;2.37;;
9892;SDS011;4985;49.092;8.542;2022-07-29T12:39:08;4.95;;;2.62;;
9892;SDS011;4985;49.092;8.542;2022-07-29T12:41:36;3.17;;;2.58;;
9892;SDS011;4985;49.092;8.542;2022-07-29T12:44:03;2.95;;;2.40;;
9892;SDS011;4985;49.092;8.542;2022-07-29T12:46:30;3.28;;;2.40;;
9892;SDS011;4985;49.092;8.542;2022-07-29T12:48:57;3.92;;;2.42;;
9892;SDS011;4985;49.092;8.542;2022-07-29T12:51:29;6.70;;;2.72;;
9892;SDS011;4985;49.092;8.542;2022-07-29T12:54:05;2.85;;;2.15;;
9892;SDS011;4985;49.092;8.542;2022-07-29T12:56:36;3.95;;;2.47;;
9892;SDS011;4985;49.092;8.542;2022-07-29T12:59:13;2.95;;;2.35;;
9892;SDS011;4985;49.092;8.542;2022-07-29T13:01:41;5.25;;;2.45;;
9892;SDS011;4985;49.092;8.542;2022-07-29T13:04:09;5.60;;;2.83;;
9892;SDS011;4985;49.092;8.542;2022-07-29T13:06:37;2.92;;;2.45;;
9892;SDS011;4985;49.092;8.542;2022-07-29T13:09:06;4.22;;;2.45;;
9892;SDS011;4985;49.092;8.542;2022-07-29T13:11:37;3.40;;;2.22;;
9892;SDS011;4985;49.092;8.542;2022-07-29T13:14:06;4.72;;;2.30;;
9892;SDS011;4985;49.092;8.542;2022-07-29T13:16:34;3.78;;;2.40;;
9892;SDS011;4985;49.092;8.542;2022-07-29T13:19:08;6.62;;;2.50;;
9892;SDS011;4985;49.092;8.542;2022-07-29T13:21:37;3.08;;;2.58;;
9892;SDS011;4985;49.092;8.542;2022-07-29T13:24:05;4.68;;;2.58;;
9892;SDS011;4985;49.092;8.542;2022-07-29T13:26:33;3.03;;;1.98;;
9892;SDS011;4985;49.092;8.542;2022-07-29T13:29:01;3.45;;;2.05;;
9892;SDS011;4985;49.092;8.542;2022-07-29T13:31:28;4.28;;;2.00;;
9892;SDS011;4985;49.092;8.542;2022-07-29T13:33:55;3.80;;;2.40;;
9892;SDS011;4985;49.092;8.542;2022-07-29T13:36:22;3.08;;;2.00;;
9892;SDS011;4985;49.092;8.542;2022-07-29T13:38:49;3.47;;;2.12;;
9892;SDS011;4985;49.092;8.542;2022-07-29T13:41:15;3.67;;;1.98;;
9892;SDS011;4985;49.092;8.542;2022-07-29T13:43:42;4.05;;;2.10;;
9892;SDS011;4985;49.092;8.542;2022-07-29T13:46:11;2.85;;;1.95;;
9892;SDS011;4985;49.092;8.542;2022-07-29T13:48:37;2.37;;;1.87;;
9892;SDS011;4985;49.092;8.542;2022-07-29T13:51:04;2.05;;;1.80;;
9892;SDS011;4985;49.092;8.542;2022-07-29T13:53:30;4.20;;;1.90;;
9892;SDS011;4985;49.092;8.542;2022-07-29T13:55:57;6.45;;;2.47;;
9892;SDS011;4985;49.092;8.542;2022-07-29T13:58:24;6.78;;;2.10;;
9892;SDS011;4985;49.092;8.542;2022-07-29T14:00:51;4.30;;;2.33;;
9892;SDS011;4985;49.092;8.542;2022-07-29T14:03:19;2.42;;;1.90;;
9892;SDS011;4985;49.092;8.542;2022-07-29T14:05:46;3.72;;;2.00;;
9892;SDS011;4985;49.092;8.542;2022-07-29T14:08:12;3.50;;;1.90;;
9892;SDS011;4985;49.092;8.542;2022-07-29T14:10:39;5.37;;;2.05;;
9892;SDS011;4985;49.092;8.542;2022-07-29T14:13:06;3.22;;;1.80;;
9892;SDS011;4985;49.092;8.542;2022-07-29T14:15:32;3.05;;;1.77;;
9892;SDS011;4985;49.092;8.542;2022-07-29T14:17:59;5.32;;;1.95;;
9892;SDS011;4985;49.092;8.542;2022-07-29T14:20:27;4.45;;;1.73;;
9892;SDS011;4985;49.092;8.542;2022-07-29T14:22:54;3.10;;;1.65;;
9892;SDS011;4985;49.092;8.542;2022-07-29T14:25:21;3.28;;;1.70;;
9892;SDS011;4985;49.092;8.542;2022-07-29T14:27:48;2.85;;;1.75;;
9892;SDS011;4985;49.092;8.542;2022-07-29T14:30:15;4.40;;;1.90;;
9892;SDS011;4985;49.092;8.542;2022-07-29T14:32:42;2.08;;;1.52;;
9892;SDS011;4985;49.092;8.542;2022-07-29T14:35:08;5.65;;;2.00;;
9892;SDS011;4985;49.092;8.542;2022-07-29T14:37:36;4.15;;;1.60;;
9892;SDS011;4985;49.092;8.542;2022-07-29T14:40:04;1.85;;;1.45;;
9892;SDS011;4985;49.092;8.542;2022-07-29T14:42:31;3.87;;;1.60;;
9892;SDS011;4985;49.092;8.542;2022-07-29T14:44:58;6.28;;;1.83;;
9892;SDS011;4985;49.092;8.542;2022-07-29T14:47:26;1.80;;;1.60;;
9892;SDS011;4985;49.092;8.542;2022-07-29T14:49:53;1.67;;;1.55;;
9892;SDS011;4985;49.092;8.542;2022-07-29T14:52:19;4.15;;;1.73;;
9892;SDS011;4985;49.092;8.542;2022-07-29T14:54:47;5.03;;;1.70;;
9892;SDS011;4985;49.092;8.542;2022-07-29T14:57:14;2.58;;;1.60;;
9892;SDS011;4985;49.092;8.542;2022-07-29T14:59:41;3.33;;;1.48;;
9892;SDS011;4985;49.092;8.542;2022-07-29T15:02:08;2.83;;;1.70;;
9892;SDS011;4985;49.092;8.542;2022-07-29T15:04:34;3.17;;;1.70;;
9892;SDS011;4985;49.092;8.542;2022-07-29T15:07:01;1.55;;;1.45;;
9892;SDS011;4985;49.092;8.542;2022-07-29T15:09:28;2.25;;;1.60;;
9892;SDS011;4985;49.092;8.542;2022-07-29T15:11:56;3.85;;;1.92;;
9892;SDS011;4985;49.092;8.542;2022-07-29T15:14:22;3.55;;;1.60;;
9892;SDS011;4985;49.092;8.542;2022-07-29T15:16:49;3.72;;;1.50;;
9892;SDS011;4985;49.092;8.542;2022-07-29T15:19:16;3.35;;;1.40;;
9892;SDS011;4985;49.092;8.542;2022-07-29T15:21:42;1.73;;;1.50;;
9892;SDS011;4985;49.092;8.542;2022-07-29T15:24:09;3.70;;;1.52;;
9892;SDS011;4985;49.092;8.542;2022-07-29T15:26:36;2.72;;;1.70;;
9892;SDS011;4985;49.092;8.542;2022-07-29T15:29:04;3.75;;;1.60;;
9892;SDS011;4985;49.092;8.542;2022-07-29T15:31:30;4.28;;;1.85;;
9892;SDS011;4985;49.092;8.542;2022-07-29T15:33:57;6.05;;;1.90;;
9892;SDS011;4985;49.092;8.542;2022-07-29T15:36:23;2.75;;;1.80;;